Time;durP1;ratioP1;P1;durP2;ratioP2;P2;SDS_P1;SDS_P2;PMS_P1;PMS_P2;Temp;Humidity;BMP_temperature;BMP_pressure;BME280_temperature;BME280_humidity;BME280_pressure;Samples;Min_cycle;Max_cycle;Signal;HPM_P1;HPM_P2
2022/06/28 15:50:27;;;;;;;;;;;34.80;28.20;;;;;;5104966;27;20637;-87
2022/06/28 15:52:53;;;;;;;;;;;34.40;31.30;;;;;;5064022;28;20015;-88
2022/06/28 15:55:18;;;;;;;6.55;1.45;;;33.70;29.50;;;;;;5056238;28;20277;-89
2022/06/28 15:57:44;;;;;;;5.15;0.95;;;31.40;38.00;;;;;;5047564;28;20109;-90
2022/06/28 16:00:10;;;;;;;2.67;1.00;;;29.30;36.70;;;;;;5040878;28;20044;-88
2022/06/28 16:02:36;;;;;;;2.85;0.90;;;27.60;37.80;;;;;;5051994;28;20041;-88
2022/06/28 16:05:03;;;;;;;5.28;0.90;;;26.60;40.20;;;;;;5053505;28;20138;-88
2022/06/28 16:07:32;;;;;;;3.60;0.88;;;26.70;41.30;;;;;;5022664;28;20056;-89
2022/06/28 16:09:58;;;;;;;5.75;1.00;;;27.30;40.40;;;;;;5071144;28;20044;-88
2022/06/28 16:15:09;;;;;;;3.72;0.70;;;29.90;36.40;;;;;;5037582;28;20477;-89
2022/06/28 16:17:35;;;;;;;11.45;0.93;;;31.40;33.60;;;;;;5026223;28;20044;-88
2022/06/28 16:20:00;;;;;;;4.05;0.77;;;32.20;32.50;;;;;;5015480;28;20090;-88
2022/06/28 16:22:26;;;;;;;5.18;0.90;;;33.00;31.20;;;;;;5052435;28;20040;-87
2022/06/28 16:24:52;;;;;;;4.45;1.00;;;33.60;30.60;;;;;;5068029;28;20653;-86
2022/06/28 16:27:18;;;;;;;4.60;1.38;;;33.80;29.60;;;;;;5085336;28;20056;-87
2022/06/28 16:29:44;;;;;;;4.25;0.85;;;34.00;30.00;;;;;;5034066;28;20029;-87
2022/06/28 16:32:09;;;;;;;2.03;0.73;;;34.10;29.10;;;;;;5038910;28;20110;-87
2022/06/28 16:34:35;;;;;;;5.45;1.67;;;34.20;28.80;;;;;;5024655;28;20044;-88
2022/06/28 16:37:01;;;;;;;4.50;0.90;;;34.40;28.10;;;;;;5050371;28;20054;-87
2022/06/28 16:39:27;;;;;;;2.28;0.70;;;34.50;28.60;;;;;;5047727;28;20049;-87
2022/06/28 16:41:53;;;;;;;3.95;0.80;;;34.10;28.40;;;;;;5063663;28;20044;-87
2022/06/28 16:44:20;;;;;;;3.00;0.90;;;32.80;29.20;;;;;;5066952;28;20052;-87
2022/06/28 16:46:45;;;;;;;2.88;0.73;;;31.60;31.20;;;;;;5060110;28;20053;-88
2022/06/28 16:49:11;;;;;;;5.30;0.95;;;30.40;32.40;;;;;;5065345;28;20055;-85
2022/06/28 16:51:37;;;;;;;3.72;1.00;;;29.30;33.50;;;;;;5042502;28;20733;-87
2022/06/28 16:54:03;;;;;;;3.47;0.95;;;28.50;36.00;;;;;;5031054;28;20474;-89
2022/06/28 16:56:29;;;;;;;3.20;1.00;;;27.70;36.70;;;;;;5035989;28;20037;-89
2022/06/28 16:58:55;;;;;;;3.97;0.73;;;27.10;36.30;;;;;;5054829;28;20127;-88
2022/06/28 17:01:21;;;;;;;3.58;0.70;;;26.40;37.10;;;;;;5021284;28;20048;-85
2022/06/28 17:03:47;;;;;;;5.43;0.90;;;25.90;38.40;;;;;;5046159;28;20045;-86
2022/06/28 17:08:57;;;;;;;7.03;0.82;;;24.90;40.30;;;;;;5015815;28;20044;-88
2022/06/28 17:11:22;;;;;;;3.75;0.90;;;24.60;41.90;;;;;;5031863;28;20048;-89
2022/06/28 17:13:48;;;;;;;4.25;0.75;;;24.30;41.50;;;;;;5008762;28;20128;-88
2022/06/28 17:16:14;;;;;;;5.57;1.10;;;24.10;42.80;;;;;;5025006;28;20486;-88
2022/06/28 17:18:40;;;;;;;4.25;1.35;;;24.00;44.00;;;;;;5020262;28;20126;-89
2022/06/28 17:21:06;;;;;;;4.07;0.90;;;23.90;44.20;;;;;;5029123;28;20072;-88
2022/06/28 17:23:34;;;;;;;4.57;0.98;;;23.90;44.40;;;;;;5023429;28;20075;-91
2022/06/28 17:26:00;;;;;;;5.82;0.80;;;23.80;44.20;;;;;;5063596;28;20041;-88
2022/06/28 17:28:26;;;;;;;3.67;0.90;;;23.70;44.00;;;;;;5027184;28;20040;-88
2022/06/28 17:30:52;;;;;;;6.43;1.25;;;23.70;43.70;;;;;;5036632;28;20576;-88
2022/06/28 17:33:19;;;;;;;4.75;0.88;;;23.60;46.00;;;;;;5046575;28;20163;-88
2022/06/28 17:35:44;;;;;;;7.97;1.33;;;23.50;45.30;;;;;;5028745;28;20539;-89
2022/06/28 17:38:11;;;;;;;3.65;0.77;;;23.50;46.20;;;;;;5037348;28;20127;-88
2022/06/28 17:40:36;;;;;;;5.30;0.90;;;23.40;46.40;;;;;;5019467;28;20055;-89
2022/06/28 17:43:02;;;;;;;5.47;1.00;;;23.30;46.60;;;;;;5023781;28;20033;-88
2022/06/28 17:45:28;;;;;;;5.68;0.90;;;23.30;47.30;;;;;;5030986;28;20039;-84
2022/06/28 17:47:54;;;;;;;3.83;0.85;;;23.30;47.80;;;;;;5045151;28;20103;-88
2022/06/28 17:50:20;;;;;;;4.75;1.02;;;23.30;49.20;;;;;;5050926;28;20052;-89
2022/06/28 17:52:47;;;;;;;4.40;1.33;;;23.30;49.00;;;;;;5036208;28;20157;-88
2022/06/28 17:55:12;;;;;;;3.53;1.15;;;23.30;48.70;;;;;;5050329;28;20045;-89
2022/06/28 17:57:38;;;;;;;6.43;1.10;;;23.30;48.70;;;;;;5050110;28;20044;-87
2022/06/28 18:00:05;;;;;;;4.68;0.90;;;23.20;48.90;;;;;;5021811;28;20063;-86
2022/06/28 18:02:31;;;;;;;4.07;0.90;;;23.10;50.30;;;;;;5053907;28;20043;-87
2022/06/28 18:04:57;;;;;;;4.10;1.05;;;23.00;51.20;;;;;;5048630;28;20044;-89
2022/06/28 18:07:22;;;;;;;4.32;1.00;;;22.90;52.70;;;;;;5044729;28;20340;-88
2022/06/28 18:09:48;;;;;;;7.68;1.55;;;22.80;53.70;;;;;;5036920;28;20465;-88
2022/06/28 18:12:15;;;;;;;6.20;1.00;;;22.70;54.60;;;;;;5023792;28;20080;-89
2022/06/28 18:14:42;;;;;;;5.03;0.80;;;22.70;55.20;;;;;;5030058;28;20049;-89
2022/06/28 18:17:07;;;;;;;8.05;1.75;;;22.60;55.20;;;;;;5020386;28;20086;-87
2022/06/28 18:19:34;;;;;;;3.65;0.90;;;22.60;55.20;;;;;;5028370;28;20458;-88
2022/06/28 18:22:00;;;;;;;3.55;0.90;;;22.50;55.40;;;;;;5002335;28;20121;-88
2022/06/28 18:24:25;;;;;;;9.65;1.48;;;22.50;56.70;;;;;;5012498;28;20052;-89
2022/06/28 18:26:51;;;;;;;3.83;1.10;;;22.40;57.50;;;;;;5029385;28;20095;-88
2022/06/28 18:29:17;;;;;;;3.85;1.33;;;22.30;57.40;;;;;;5039923;28;20049;-88
2022/06/28 18:31:42;;;;;;;6.43;1.20;;;22.30;59.40;;;;;;5033397;28;20055;-89
2022/06/28 18:34:08;;;;;;;5.18;0.90;;;22.20;59.60;;;;;;5049068;28;20058;-90
2022/06/28 18:36:34;;;;;;;3.95;1.05;;;22.10;59.80;;;;;;5028733;28;20175;-90
2022/06/28 18:39:00;;;;;;;4.97;1.05;;;22.00;60.00;;;;;;5022333;28;20127;-89
2022/06/28 18:41:25;;;;;;;3.85;0.90;;;22.00;60.80;;;;;;5028689;28;20203;-89
2022/06/28 18:43:51;;;;;;;4.18;1.40;;;21.90;60.90;;;;;;5038702;28;20042;-89
2022/06/28 18:46:17;;;;;;;4.68;0.98;;;21.80;61.70;;;;;;5034605;28;20075;-89
2022/06/28 18:48:44;;;;;;;2.17;1.10;;;21.80;62.50;;;;;;5036701;28;20044;-89
2022/06/28 18:51:10;;;;;;;3.72;1.10;;;21.70;63.40;;;;;;5019993;28;20051;-90
2022/06/28 18:53:36;;;;;;;4.53;1.00;;;21.70;64.00;;;;;;5036591;28;20051;-89
2022/06/28 18:56:02;;;;;;;7.13;1.50;;;21.60;65.20;;;;;;5044460;28;20040;-89
2022/06/28 18:58:28;;;;;;;6.50;1.20;;;21.50;65.70;;;;;;5055478;28;20248;-89
2022/06/28 19:00:54;;;;;;;8.48;1.00;;;21.40;66.80;;;;;;5029993;28;20640;-89
2022/06/28 19:03:20;;;;;;;4.07;1.10;;;21.30;68.50;;;;;;5038889;28;20032;-89
2022/06/28 19:05:45;;;;;;;5.43;1.40;;;21.20;69.40;;;;;;5038090;28;20036;-89
2022/06/28 19:08:11;;;;;;;4.97;1.55;;;21.10;69.90;;;;;;5038945;28;20435;-91
2022/06/28 19:10:37;;;;;;;3.58;1.30;;;20.90;71.70;;;;;;5037055;28;20473;-88
2022/06/28 19:13:03;;;;;;;5.38;1.17;;;20.80;74.10;;;;;;5022470;28;20096;-90
2022/06/28 19:15:29;;;;;;;3.13;1.23;;;20.70;76.40;;;;;;5034061;28;20110;-89
2022/06/28 19:17:55;;;;;;;6.20;1.30;;;20.60;79.20;;;;;;5042473;28;20084;-89
2022/06/28 19:20:21;;;;;;;5.75;1.42;;;20.50;81.50;;;;;;5035407;28;20454;-89
2022/06/28 19:22:47;;;;;;;4.57;1.05;;;20.40;83.80;;;;;;5053601;28;20063;-88
2022/06/28 19:25:13;;;;;;;5.22;1.10;;;20.20;84.90;;;;;;5036936;28;20037;-90
2022/06/28 19:27:40;;;;;;;4.57;1.10;;;20.10;85.90;;;;;;5019786;28;20041;-89
2022/06/28 19:30:07;;;;;;;5.68;1.75;;;20.00;86.70;;;;;;5034549;28;20082;-89
2022/06/28 19:32:33;;;;;;;5.47;1.08;;;19.90;87.60;;;;;;5034031;28;20036;-88
2022/06/28 19:34:58;;;;;;;4.13;1.13;;;19.80;90.10;;;;;;5053333;28;20052;-88
2022/06/28 19:37:24;;;;;;;3.03;1.02;;;19.70;91.60;;;;;;5020313;28;20044;-88
2022/06/28 19:39:51;;;;;;;3.78;1.10;;;19.60;93.00;;;;;;5036189;28;20044;-88
2022/06/28 19:42:17;;;;;;;6.30;1.27;;;19.50;94.30;;;;;;5016853;28;20037;-90
2022/06/28 19:44:43;;;;;;;4.63;1.40;;;19.30;95.50;;;;;;5011276;28;20090;-88
2022/06/28 19:47:08;;;;;;;3.65;1.05;;;19.20;97.20;;;;;;5033219;28;20508;-88
2022/06/28 19:49:34;;;;;;;2.67;1.00;;;19.10;98.10;;;;;;5023923;28;20107;-88
2022/06/28 19:52:00;;;;;;;5.05;1.27;;;18.90;99.90;;;;;;5001046;28;20497;-89
2022/06/28 19:54:26;;;;;;;4.57;1.50;;;18.80;99.90;;;;;;5044523;28;20051;-88
2022/06/28 19:56:52;;;;;;;3.80;1.52;;;18.70;99.90;;;;;;5041132;28;20051;-89
2022/06/28 19:59:18;;;;;;;10.63;1.95;;;18.70;99.90;;;;;;5019674;28;20051;-88
2022/06/28 20:01:44;;;;;;;3.85;1.65;;;18.40;99.90;;;;;;5024811;28;20040;-89
2022/06/28 20:04:10;;;;;;;6.00;1.40;;;18.40;99.90;;;;;;5027577;28;20032;-88
2022/06/28 20:06:36;;;;;;;5.43;1.48;;;18.30;99.90;;;;;;5028027;28;20123;-85
2022/06/28 20:09:03;;;;;;;6.18;1.27;;;18.20;99.90;;;;;;5029782;28;20037;-86
2022/06/28 20:11:28;;;;;;;5.53;1.92;;;18.10;99.90;;;;;;5034743;28;20044;-86
2022/06/28 20:13:55;;;;;;;5.47;2.15;;;18.00;99.90;;;;;;5000840;28;20097;-88
2022/06/28 20:16:22;;;;;;;4.93;1.90;;;17.90;99.90;;;;;;5039464;28;20033;-88
2022/06/28 20:18:48;;;;;;;6.55;2.30;;;17.80;99.90;;;;;;5028629;28;20044;-85
2022/06/28 20:21:14;;;;;;;4.68;1.30;;;17.70;99.90;;;;;;5028143;28;20048;-85
2022/06/28 20:23:40;;;;;;;2.72;1.30;;;17.60;99.90;;;;;;5017873;28;20079;-84
2022/06/28 20:26:05;;;;;;;6.68;1.90;;;17.50;99.90;;;;;;5030292;28;20072;-86
2022/06/28 20:28:35;;;;;;;4.80;1.27;;;17.50;99.90;;;;;;5043151;28;20100;-87
2022/06/28 20:31:00;;;;;;;5.30;1.35;;;17.30;99.90;;;;;;5028998;28;20060;-86
2022/06/28 20:33:26;;;;;;;7.65;2.08;;;17.30;99.90;;;;;;5043335;28;20361;-86
2022/06/28 20:35:52;;;;;;;4.38;1.30;;;17.20;99.90;;;;;;5047219;28;20072;-87
2022/06/28 20:38:17;;;;;;;4.25;1.38;;;17.10;99.90;;;;;;5046655;28;20044;-86
2022/06/28 20:40:43;;;;;;;5.57;1.33;;;17.00;99.90;;;;;;5019398;28;20527;-87
2022/06/28 20:43:09;;;;;;;2.17;1.20;;;16.90;99.90;;;;;;5055905;28;20033;-89
2022/06/28 20:45:35;;;;;;;4.60;1.30;;;16.80;99.90;;;;;;5025784;28;20127;-88
2022/06/28 20:48:01;;;;;;;3.20;1.60;;;16.70;99.90;;;;;;5036882;28;20122;-90
2022/06/28 20:50:27;;;;;;;7.32;1.40;;;16.70;99.90;;;;;;5037764;28;20055;-89
2022/06/28 20:52:53;;;;;;;5.75;1.75;;;16.60;99.90;;;;;;5009540;28;20535;-86
2022/06/28 20:55:19;;;;;;;7.72;1.80;;;16.60;99.90;;;;;;5023543;28;20094;-89
2022/06/28 20:57:45;;;;;;;4.68;1.30;;;16.50;99.90;;;;;;5036543;28;20048;-88
2022/06/28 21:00:11;;;;;;;3.53;1.45;;;16.40;99.90;;;;;;5016224;28;20075;-88
2022/06/28 21:02:36;;;;;;;5.53;1.50;;;16.30;99.90;;;;;;5015989;28;20477;-88
2022/06/28 21:05:03;;;;;;;7.00;1.58;;;16.20;99.90;;;;;;5046028;28;20048;-88
2022/06/28 21:07:31;;;;;;;7.40;2.10;;;16.20;99.90;;;;;;5053447;28;20045;-88
2022/06/28 21:09:57;;;;;;;6.18;1.67;;;16.10;99.90;;;;;;5049167;28;20061;-87
2022/06/28 21:12:23;;;;;;;4.82;1.70;;;16.10;99.90;;;;;;5037687;28;20173;-88
2022/06/28 21:14:49;;;;;;;5.68;2.00;;;16.00;99.90;;;;;;5009449;28;20041;-88
2022/06/28 21:17:15;;;;;;;7.78;1.80;;;16.10;99.90;;;;;;5039463;28;20036;-89
2022/06/28 21:19:41;;;;;;;7.68;1.70;;;16.00;99.90;;;;;;5035620;28;20178;-88
2022/06/28 21:22:06;;;;;;;4.38;1.67;;;15.90;99.90;;;;;;5026021;28;20398;-88
2022/06/28 21:24:32;;;;;;;5.05;1.83;;;15.90;99.90;;;;;;5032073;28;20724;-88
2022/06/28 21:26:58;;;;;;;7.75;2.22;;;15.70;99.90;;;;;;5021362;28;20055;-88
2022/06/28 21:29:23;;;;;;;5.80;1.90;;;15.70;99.90;;;;;;5031787;28;20048;-88
2022/06/28 21:31:49;;;;;;;3.42;1.50;;;15.60;99.90;;;;;;5028156;28;20047;-88
2022/06/28 21:34:15;;;;;;;6.90;1.55;;;15.50;99.90;;;;;;5034871;28;20131;-88
2022/06/28 21:36:41;;;;;;;6.25;2.28;;;15.50;99.90;;;;;;5032269;28;20048;-88
2022/06/28 21:39:06;;;;;;;7.97;2.00;;;15.50;99.90;;;;;;5014304;28;20041;-88
2022/06/28 21:41:35;;;;;;;7.68;1.95;;;15.40;99.90;;;;;;5035345;28;20044;-89
2022/06/28 21:44:00;;;;;;;6.30;2.00;;;15.30;99.90;;;;;;5032534;28;20036;-88
2022/06/28 21:46:28;;;;;;;5.03;2.15;;;15.20;99.90;;;;;;5012543;28;20125;-88
2022/06/28 21:48:57;;;;;;;5.68;2.10;;;15.20;99.90;;;;;;5024738;28;20123;-88
2022/06/28 21:51:42;;;;;;;5.13;2.38;;;15.10;99.90;;;;;;5039108;28;20492;-88
2022/06/28 21:54:07;;;;;;;7.32;2.53;;;15.00;99.90;;;;;;5026223;28;20036;-88
2022/06/28 21:56:33;;;;;;;6.15;2.20;;;14.90;99.90;;;;;;5054939;28;20062;-90
2022/06/28 21:58:59;;;;;;;6.40;2.30;;;14.90;99.90;;;;;;5020121;28;20127;-88
2022/06/28 22:01:25;;;;;;;4.95;2.30;;;14.80;99.90;;;;;;5020281;28;20529;-89
2022/06/28 22:03:51;;;;;;;8.25;2.50;;;14.80;99.90;;;;;;5007977;28;20044;-89
2022/06/28 22:06:19;;;;;;;5.50;2.22;;;14.70;99.90;;;;;;5036513;28;20076;-87
2022/06/28 22:08:45;;;;;;;5.03;2.40;;;14.70;99.90;;;;;;5029008;28;20028;-88
2022/06/28 22:14:07;;;;;;;6.10;2.72;;;14.60;99.90;;;;;;5041603;28;20055;-87
2022/06/28 22:16:33;;;;;;;4.85;2.25;;;14.50;99.90;;;;;;5037848;28;20048;-87
2022/06/28 22:19:00;;;;;;;5.40;2.55;;;14.50;99.90;;;;;;5033428;28;20036;-87
2022/06/28 22:21:26;;;;;;;4.90;2.10;;;14.50;99.90;;;;;;5044709;28;20040;-87
2022/06/28 22:23:53;;;;;;;5.40;2.58;;;14.50;99.90;;;;;;5034182;28;20060;-88
2022/06/28 22:26:19;;;;;;;5.07;2.10;;;14.40;99.90;;;;;;5021175;28;20055;-88
2022/06/28 22:28:45;;;;;;;8.85;2.40;;;14.40;99.90;;;;;;5031969;28;20033;-88
2022/06/28 22:31:11;;;;;;;5.22;2.10;;;14.30;99.90;;;;;;5014627;28;20103;-88
2022/06/28 22:33:37;;;;;;;6.90;2.17;;;14.30;99.90;;;;;;5047206;28;20045;-88
2022/06/28 22:36:03;;;;;;;6.38;2.33;;;14.20;99.90;;;;;;5027630;28;20515;-88
2022/06/28 22:38:28;;;;;;;4.75;2.13;;;14.20;99.90;;;;;;5004283;28;20431;-88
2022/06/28 22:40:54;;;;;;;6.25;2.20;;;14.20;99.90;;;;;;5017396;28;20047;-88
2022/06/28 22:43:20;;;;;;;4.60;2.20;;;14.20;99.90;;;;;;5009661;28;20402;-87
2022/06/28 22:45:47;;;;;;;4.90;2.45;;;14.20;99.90;;;;;;5019216;28;20381;-87
2022/06/28 22:48:13;;;;;;;4.60;2.38;;;14.20;99.90;;;;;;5011867;28;20428;-88
2022/06/28 22:50:39;;;;;;;5.63;2.60;;;14.20;99.90;;;;;;5031691;28;20114;-88
2022/06/28 22:53:05;;;;;;;5.32;2.55;;;14.20;99.90;;;;;;5035133;28;20040;-88
2022/06/28 22:55:31;;;;;;;3.35;2.10;;;14.20;99.90;;;;;;5019799;28;20381;-88
2022/06/28 22:57:56;;;;;;;6.45;2.50;;;14.20;99.90;;;;;;5049546;28;20059;-89
2022/06/28 23:00:22;;;;;;;5.55;2.40;;;14.20;99.90;;;;;;5029811;28;20044;-87
2022/06/28 23:02:48;;;;;;;4.78;2.53;;;14.20;99.90;;;;;;5011373;28;20040;-87
2022/06/28 23:05:17;;;;;;;7.25;2.60;;;14.10;99.90;;;;;;5050370;28;20036;-87
2022/06/28 23:07:43;;;;;;;5.35;2.65;;;14.10;99.90;;;;;;5026879;28;20048;-88
2022/06/28 23:12:53;;;;;;;6.18;2.30;;;14.10;99.90;;;;;;5023900;28;20523;-86
2022/06/28 23:15:21;;;;;;;6.78;2.60;;;14.10;99.90;;;;;;5027622;28;20131;-87
2022/06/28 23:17:47;;;;;;;8.40;2.88;;;14.10;99.90;;;;;;5029445;28;20087;-89
2022/06/28 23:20:15;;;;;;;7.22;2.80;;;14.10;99.90;;;;;;5007957;28;20509;-88
2022/06/28 23:22:41;;;;;;;5.88;3.40;;;14.00;99.90;;;;;;5008848;28;20088;-87
2022/06/28 23:25:07;;;;;;;7.15;2.95;;;14.00;99.90;;;;;;5005588;28;20039;-87
2022/06/28 23:27:33;;;;;;;4.32;2.75;;;13.90;99.90;;;;;;5016882;28;20136;-87
2022/06/28 23:29:58;;;;;;;5.32;2.83;;;13.90;99.90;;;;;;5035606;28;20115;-87
2022/06/28 23:32:24;;;;;;;4.47;2.47;;;13.80;99.90;;;;;;5026424;28;20037;-87
2022/06/28 23:34:51;;;;;;;5.57;2.90;;;13.80;99.90;;;;;;5007704;28;20135;-87
2022/06/28 23:37:17;;;;;;;5.90;2.65;;;13.70;99.90;;;;;;5049751;28;20061;-87
2022/06/28 23:39:43;;;;;;;5.75;2.60;;;13.70;99.90;;;;;;5018973;28;20473;-88
2022/06/28 23:42:09;;;;;;;8.48;3.17;;;13.70;99.90;;;;;;5052479;28;20036;-87
2022/06/28 23:44:34;;;;;;;5.57;2.92;;;13.60;99.90;;;;;;5017579;28;20044;-89
2022/06/28 23:47:00;;;;;;;6.85;2.80;;;13.60;99.90;;;;;;5045419;28;20040;-87
2022/06/28 23:49:26;;;;;;;4.05;2.70;;;13.60;99.90;;;;;;5026863;28;20148;-87
2022/06/28 23:51:52;;;;;;;5.50;2.72;;;13.50;99.90;;;;;;5052728;28;20060;-87
2022/06/28 23:57:03;;;;;;;5.53;2.83;;;13.50;99.90;;;;;;5047795;28;20520;-87
2022/06/28 23:59:28;;;;;;;8.05;3.25;;;13.50;99.90;;;;;;5005519;28;20036;-87
